sensor_id;sensor_type;location;lat;lon;timestamp;P1;durP1;ratioP1;P2;durP2;ratioP2
32876;SDS011;19226;51.600;8.034;2023-02-26T00:02:43;7.10;;;2.80;;
32876;SDS011;19226;51.600;8.034;2023-02-26T00:05:31;7.95;;;2.75;;
32876;SDS011;19226;51.600;8.034;2023-02-26T00:08:15;2.40;;;2.15;;
32876;SDS011;19226;51.600;8.034;2023-02-26T00:11:00;5.30;;;2.50;;
32876;SDS011;19226;51.600;8.034;2023-02-26T00:13:44;2.47;;;2.17;;
32876;SDS011;19226;51.600;8.034;2023-02-26T00:16:30;5.35;;;2.90;;
32876;SDS011;19226;51.600;8.034;2023-02-26T00:19:17;7.30;;;2.40;;
32876;SDS011;19226;51.600;8.034;2023-02-26T00:22:02;6.65;;;2.67;;
32876;SDS011;19226;51.600;8.034;2023-02-26T00:24:47;6.85;;;2.90;;
32876;SDS011;19226;51.600;8.034;2023-02-26T00:27:32;5.70;;;2.58;;
32876;SDS011;19226;51.600;8.034;2023-02-26T00:30:16;4.97;;;2.28;;
32876;SDS011;19226;51.600;8.034;2023-02-26T00:33:02;8.35;;;2.90;;
32876;SDS011;19226;51.600;8.034;2023-02-26T00:35:48;4.53;;;2.60;;
32876;SDS011;19226;51.600;8.034;2023-02-26T00:38:39;6.88;;;2.85;;
32876;SDS011;19226;51.600;8.034;2023-02-26T00:41:28;7.55;;;3.08;;
32876;SDS011;19226;51.600;8.034;2023-02-26T00:44:13;3.67;;;2.35;;
32876;SDS011;19226;51.600;8.034;2023-02-26T00:53:16;3.55;;;2.60;;
32876;SDS011;19226;51.600;8.034;2023-02-26T00:56:08;4.30;;;2.90;;
32876;SDS011;19226;51.600;8.034;2023-02-26T00:58:53;6.45;;;3.03;;
32876;SDS011;19226;51.600;8.034;2023-02-26T01:01:38;4.93;;;2.78;;
32876;SDS011;19226;51.600;8.034;2023-02-26T01:04:23;6.78;;;2.67;;
32876;SDS011;19226;51.600;8.034;2023-02-26T01:07:08;6.68;;;2.70;;
32876;SDS011;19226;51.600;8.034;2023-02-26T01:09:53;3.13;;;2.80;;
32876;SDS011;19226;51.600;8.034;2023-02-26T01:12:38;4.57;;;2.40;;
32876;SDS011;19226;51.600;8.034;2023-02-26T01:15:26;7.53;;;2.20;;
32876;SDS011;19226;51.600;8.034;2023-02-26T01:18:13;3.88;;;2.75;;
32876;SDS011;19226;51.600;8.034;2023-02-26T01:21:09;7.68;;;2.70;;
32876;SDS011;19226;51.600;8.034;2023-02-26T01:24:00;2.92;;;2.42;;
32876;SDS011;19226;51.600;8.034;2023-02-26T01:26:47;2.50;;;2.30;;
32876;SDS011;19226;51.600;8.034;2023-02-26T01:29:33;5.35;;;2.92;;
32876;SDS011;19226;51.600;8.034;2023-02-26T01:38:28;11.00;;;2.90;;
32876;SDS011;19226;51.600;8.034;2023-02-26T01:44:18;7.88;;;2.95;;
32876;SDS011;19226;51.600;8.034;2023-02-26T01:50:31;3.42;;;2.55;;
32876;SDS011;19226;51.600;8.034;2023-02-26T01:53:20;4.30;;;2.85;;
32876;SDS011;19226;51.600;8.034;2023-02-26T01:56:14;4.00;;;2.92;;
32876;SDS011;19226;51.600;8.034;2023-02-26T01:59:05;4.47;;;2.55;;
32876;SDS011;19226;51.600;8.034;2023-02-26T02:01:55;12.10;;;2.38;;
32876;SDS011;19226;51.600;8.034;2023-02-26T02:04:41;5.00;;;2.75;;
32876;SDS011;19226;51.600;8.034;2023-02-26T02:07:26;11.00;;;2.88;;
32876;SDS011;19226;51.600;8.034;2023-02-26T02:10:13;4.15;;;2.38;;
32876;SDS011;19226;51.600;8.034;2023-02-26T02:13:02;4.80;;;2.60;;
32876;SDS011;19226;51.600;8.034;2023-02-26T02:18:48;6.82;;;3.15;;
32876;SDS011;19226;51.600;8.034;2023-02-26T02:31:27;7.22;;;3.00;;
32876;SDS011;19226;51.600;8.034;2023-02-26T02:37:13;2.87;;;2.43;;
32876;SDS011;19226;51.600;8.034;2023-02-26T02:40:12;6.97;;;2.80;;
32876;SDS011;19226;51.600;8.034;2023-02-26T02:43:05;3.63;;;2.20;;
32876;SDS011;19226;51.600;8.034;2023-02-26T02:45:59;9.98;;;2.90;;
32876;SDS011;19226;51.600;8.034;2023-02-26T02:48:51;6.28;;;2.90;;
32876;SDS011;19226;51.600;8.034;2023-02-26T02:51:44;3.00;;;2.35;;
32876;SDS011;19226;51.600;8.034;2023-02-26T02:54:34;4.93;;;2.95;;
32876;SDS011;19226;51.600;8.034;2023-02-26T02:57:32;4.18;;;2.50;;
32876;SDS011;19226;51.600;8.034;2023-02-26T03:00:20;5.78;;;2.53;;
32876;SDS011;19226;51.600;8.034;2023-02-26T03:06:29;8.02;;;2.75;;
32876;SDS011;19226;51.600;8.034;2023-02-26T03:09:14;3.30;;;2.33;;
32876;SDS011;19226;51.600;8.034;2023-02-26T03:11:59;4.90;;;2.58;;
32876;SDS011;19226;51.600;8.034;2023-02-26T03:14:43;5.80;;;3.13;;
32876;SDS011;19226;51.600;8.034;2023-02-26T03:17:30;5.45;;;2.97;;
32876;SDS011;19226;51.600;8.034;2023-02-26T03:20:26;4.57;;;2.47;;
32876;SDS011;19226;51.600;8.034;2023-02-26T03:23:18;4.07;;;3.03;;
32876;SDS011;19226;51.600;8.034;2023-02-26T03:26:12;4.55;;;2.88;;
32876;SDS011;19226;51.600;8.034;2023-02-26T03:29:04;4.03;;;2.97;;
32876;SDS011;19226;51.600;8.034;2023-02-26T03:32:14;5.55;;;3.17;;
32876;SDS011;19226;51.600;8.034;2023-02-26T03:37:55;9.82;;;2.53;;
32876;SDS011;19226;51.600;8.034;2023-02-26T03:40:59;4.65;;;2.58;;
32876;SDS011;19226;51.600;8.034;2023-02-26T03:44:07;3.78;;;2.85;;
32876;SDS011;19226;51.600;8.034;2023-02-26T03:47:11;3.85;;;2.55;;
32876;SDS011;19226;51.600;8.034;2023-02-26T03:52:48;4.90;;;3.00;;
32876;SDS011;19226;51.600;8.034;2023-02-26T03:59:08;4.68;;;2.67;;
32876;SDS011;19226;51.600;8.034;2023-02-26T04:02:10;6.22;;;2.60;;
32876;SDS011;19226;51.600;8.034;2023-02-26T04:05:06;2.92;;;2.63;;
32876;SDS011;19226;51.600;8.034;2023-02-26T04:10:45;6.18;;;2.47;;
32876;SDS011;19226;51.600;8.034;2023-02-26T04:13:35;4.63;;;2.20;;
32876;SDS011;19226;51.600;8.034;2023-02-26T04:16:21;7.78;;;2.55;;
32876;SDS011;19226;51.600;8.034;2023-02-26T04:19:06;5.45;;;2.85;;
32876;SDS011;19226;51.600;8.034;2023-02-26T04:21:52;7.20;;;2.42;;
32876;SDS011;19226;51.600;8.034;2023-02-26T04:24:37;4.15;;;3.00;;
32876;SDS011;19226;51.600;8.034;2023-02-26T04:27:21;5.32;;;2.88;;
32876;SDS011;19226;51.600;8.034;2023-02-26T04:30:06;6.15;;;2.53;;
32876;SDS011;19226;51.600;8.034;2023-02-26T04:32:51;12.05;;;2.70;;
32876;SDS011;19226;51.600;8.034;2023-02-26T04:35:36;10.07;;;2.88;;
32876;SDS011;19226;51.600;8.034;2023-02-26T04:38:21;4.60;;;2.75;;
32876;SDS011;19226;51.600;8.034;2023-02-26T04:41:06;4.47;;;2.80;;
32876;SDS011;19226;51.600;8.034;2023-02-26T04:43:51;4.32;;;2.65;;
32876;SDS011;19226;51.600;8.034;2023-02-26T04:46:43;9.25;;;2.55;;
32876;SDS011;19226;51.600;8.034;2023-02-26T04:49:27;11.23;;;2.95;;
32876;SDS011;19226;51.600;8.034;2023-02-26T04:52:12;6.50;;;2.78;;
32876;SDS011;19226;51.600;8.034;2023-02-26T04:54:57;4.53;;;2.78;;
32876;SDS011;19226;51.600;8.034;2023-02-26T04:57:42;5.10;;;2.40;;
32876;SDS011;19226;51.600;8.034;2023-02-26T05:00:28;6.15;;;2.63;;
32876;SDS011;19226;51.600;8.034;2023-02-26T05:03:12;4.15;;;2.63;;
32876;SDS011;19226;51.600;8.034;2023-02-26T05:05:57;4.00;;;2.58;;
32876;SDS011;19226;51.600;8.034;2023-02-26T05:08:41;8.93;;;2.30;;
32876;SDS011;19226;51.600;8.034;2023-02-26T05:11:26;5.63;;;2.30;;
32876;SDS011;19226;51.600;8.034;2023-02-26T05:14:10;6.07;;;2.40;;
32876;SDS011;19226;51.600;8.034;2023-02-26T05:16:57;2.17;;;2.08;;
32876;SDS011;19226;51.600;8.034;2023-02-26T05:19:41;4.65;;;2.42;;
32876;SDS011;19226;51.600;8.034;2023-02-26T05:22:26;5.75;;;3.13;;
32876;SDS011;19226;51.600;8.034;2023-02-26T05:25:11;11.85;;;2.55;;
32876;SDS011;19226;51.600;8.034;2023-02-26T05:27:56;5.47;;;2.60;;
32876;SDS011;19226;51.600;8.034;2023-02-26T05:30:41;4.32;;;2.17;;
32876;SDS011;19226;51.600;8.034;2023-02-26T05:33:25;5.00;;;2.35;;
32876;SDS011;19226;51.600;8.034;2023-02-26T05:36:10;7.10;;;2.60;;
32876;SDS011;19226;51.600;8.034;2023-02-26T05:38:55;4.97;;;2.20;;
32876;SDS011;19226;51.600;8.034;2023-02-26T05:41:40;7.68;;;2.65;;
32876;SDS011;19226;51.600;8.034;2023-02-26T05:44:25;11.23;;;2.72;;
32876;SDS011;19226;51.600;8.034;2023-02-26T05:47:09;4.47;;;2.20;;
32876;SDS011;19226;51.600;8.034;2023-02-26T05:49:54;4.78;;;2.42;;
32876;SDS011;19226;51.600;8.034;2023-02-26T05:52:38;4.80;;;2.35;;
32876;SDS011;19226;51.600;8.034;2023-02-26T05:55:23;3.03;;;2.63;;
32876;SDS011;19226;51.600;8.034;2023-02-26T05:58:07;8.10;;;3.22;;
32876;SDS011;19226;51.600;8.034;2023-02-26T06:00:52;2.53;;;2.30;;
32876;SDS011;19226;51.600;8.034;2023-02-26T06:03:37;4.07;;;2.67;;
32876;SDS011;19226;51.600;8.034;2023-02-26T06:06:26;4.75;;;2.83;;
32876;SDS011;19226;51.600;8.034;2023-02-26T06:09:11;5.70;;;2.90;;
32876;SDS011;19226;51.600;8.034;2023-02-26T06:11:55;9.18;;;2.88;;
32876;SDS011;19226;51.600;8.034;2023-02-26T06:14:40;4.35;;;2.35;;
32876;SDS011;19226;51.600;8.034;2023-02-26T06:17:25;4.38;;;2.33;;
32876;SDS011;19226;51.600;8.034;2023-02-26T06:20:10;7.35;;;2.40;;
32876;SDS011;19226;51.600;8.034;2023-02-26T06:22:55;2.47;;;2.28;;
32876;SDS011;19226;51.600;8.034;2023-02-26T06:25:40;2.78;;;2.53;;
32876;SDS011;19226;51.600;8.034;2023-02-26T06:28:25;11.77;;;2.40;;
32876;SDS011;19226;51.600;8.034;2023-02-26T06:31:10;5.53;;;2.70;;
32876;SDS011;19226;51.600;8.034;2023-02-26T06:33:54;5.05;;;2.33;;
32876;SDS011;19226;51.600;8.034;2023-02-26T06:36:39;6.15;;;2.28;;
32876;SDS011;19226;51.600;8.034;2023-02-26T06:39:23;7.22;;;2.55;;
32876;SDS011;19226;51.600;8.034;2023-02-26T06:42:08;2.40;;;2.17;;
32876;SDS011;19226;51.600;8.034;2023-02-26T06:44:53;5.43;;;2.35;;
32876;SDS011;19226;51.600;8.034;2023-02-26T06:47:39;2.67;;;2.17;;
32876;SDS011;19226;51.600;8.034;2023-02-26T06:50:24;3.50;;;2.28;;
32876;SDS011;19226;51.600;8.034;2023-02-26T06:53:09;4.53;;;2.50;;
32876;SDS011;19226;51.600;8.034;2023-02-26T06:55:53;5.70;;;2.35;;
32876;SDS011;19226;51.600;8.034;2023-02-26T06:58:38;2.40;;;2.08;;
32876;SDS011;19226;51.600;8.034;2023-02-26T07:01:22;3.65;;;2.28;;
32876;SDS011;19226;51.600;8.034;2023-02-26T07:04:07;5.25;;;2.22;;
32876;SDS011;19226;51.600;8.034;2023-02-26T07:06:51;7.43;;;2.40;;
32876;SDS011;19226;51.600;8.034;2023-02-26T07:09:36;10.85;;;2.53;;
32876;SDS011;19226;51.600;8.034;2023-02-26T07:12:20;2.72;;;2.30;;
32876;SDS011;19226;51.600;8.034;2023-02-26T07:15:06;8.60;;;2.92;;
32876;SDS011;19226;51.600;8.034;2023-02-26T07:17:50;3.05;;;2.20;;
32876;SDS011;19226;51.600;8.034;2023-02-26T07:20:35;15.45;;;7.20;;
32876;SDS011;19226;51.600;8.034;2023-02-26T07:23:19;15.68;;;6.18;;
32876;SDS011;19226;51.600;8.034;2023-02-26T07:26:04;14.25;;;6.05;;
32876;SDS011;19226;51.600;8.034;2023-02-26T07:28:48;12.85;;;5.43;;
32876;SDS011;19226;51.600;8.034;2023-02-26T07:31:33;9.65;;;3.00;;
32876;SDS011;19226;51.600;8.034;2023-02-26T07:34:17;8.55;;;2.97;;
32876;SDS011;19226;51.600;8.034;2023-02-26T07:37:02;3.38;;;2.75;;
32876;SDS011;19226;51.600;8.034;2023-02-26T07:39:47;5.85;;;3.03;;
32876;SDS011;19226;51.600;8.034;2023-02-26T07:42:31;8.70;;;2.72;;
32876;SDS011;19226;51.600;8.034;2023-02-26T07:45:16;5.65;;;3.80;;
32876;SDS011;19226;51.600;8.034;2023-02-26T07:48:04;8.50;;;3.20;;
32876;SDS011;19226;51.600;8.034;2023-02-26T07:50:53;6.93;;;3.25;;
32876;SDS011;19226;51.600;8.034;2023-02-26T07:53:37;9.05;;;2.63;;
32876;SDS011;19226;51.600;8.034;2023-02-26T07:56:22;5.00;;;2.63;;
32876;SDS011;19226;51.600;8.034;2023-02-26T07:59:07;2.53;;;2.33;;
32876;SDS011;19226;51.600;8.034;2023-02-26T08:01:52;4.43;;;2.25;;
32876;SDS011;19226;51.600;8.034;2023-02-26T08:04:37;2.85;;;2.30;;
32876;SDS011;19226;51.600;8.034;2023-02-26T08:07:22;3.15;;;2.05;;
32876;SDS011;19226;51.600;8.034;2023-02-26T08:10:07;2.38;;;1.85;;
32876;SDS011;19226;51.600;8.034;2023-02-26T08:12:52;8.45;;;2.10;;
32876;SDS011;19226;51.600;8.034;2023-02-26T08:15:37;7.22;;;2.28;;
32876;SDS011;19226;51.600;8.034;2023-02-26T08:18:22;10.63;;;2.25;;
32876;SDS011;19226;51.600;8.034;2023-02-26T08:21:06;5.45;;;2.80;;
32876;SDS011;19226;51.600;8.034;2023-02-26T08:23:51;3.83;;;2.03;;
32876;SDS011;19226;51.600;8.034;2023-02-26T08:26:36;6.65;;;1.95;;
32876;SDS011;19226;51.600;8.034;2023-02-26T08:29:21;3.40;;;2.00;;
32876;SDS011;19226;51.600;8.034;2023-02-26T08:32:05;1.67;;;1.58;;
32876;SDS011;19226;51.600;8.034;2023-02-26T08:34:50;5.63;;;1.85;;
32876;SDS011;19226;51.600;8.034;2023-02-26T08:37:35;3.13;;;1.77;;
32876;SDS011;19226;51.600;8.034;2023-02-26T08:40:19;5.32;;;2.33;;
32876;SDS011;19226;51.600;8.034;2023-02-26T08:43:04;3.65;;;1.63;;
32876;SDS011;19226;51.600;8.034;2023-02-26T08:45:51;2.50;;;2.28;;
32876;SDS011;19226;51.600;8.034;2023-02-26T08:48:36;4.65;;;2.30;;
32876;SDS011;19226;51.600;8.034;2023-02-26T08:51:20;7.35;;;2.15;;
32876;SDS011;19226;51.600;8.034;2023-02-26T08:54:05;7.13;;;2.20;;
32876;SDS011;19226;51.600;8.034;2023-02-26T08:56:50;2.75;;;1.50;;
32876;SDS011;19226;51.600;8.034;2023-02-26T08:59:36;2.65;;;1.63;;
32876;SDS011;19226;51.600;8.034;2023-02-26T09:02:21;4.05;;;1.67;;
32876;SDS011;19226;51.600;8.034;2023-02-26T09:05:05;5.63;;;2.10;;
32876;SDS011;19226;51.600;8.034;2023-02-26T09:07:50;4.32;;;1.90;;
32876;SDS011;19226;51.600;8.034;2023-02-26T09:10:35;3.10;;;1.80;;
32876;SDS011;19226;51.600;8.034;2023-02-26T09:13:20;9.63;;;2.15;;
32876;SDS011;19226;51.600;8.034;2023-02-26T09:16:05;4.80;;;1.65;;
32876;SDS011;19226;51.600;8.034;2023-02-26T09:18:51;5.03;;;2.05;;
32876;SDS011;19226;51.600;8.034;2023-02-26T09:21:44;2.85;;;1.80;;
32876;SDS011;19226;51.600;8.034;2023-02-26T09:24:28;4.97;;;2.03;;
32876;SDS011;19226;51.600;8.034;2023-02-26T09:27:13;6.95;;;2.00;;
32876;SDS011;19226;51.600;8.034;2023-02-26T09:29:58;5.40;;;1.92;;
32876;SDS011;19226;51.600;8.034;2023-02-26T09:32:42;3.50;;;2.05;;
32876;SDS011;19226;51.600;8.034;2023-02-26T09:35:28;5.68;;;2.00;;
32876;SDS011;19226;51.600;8.034;2023-02-26T09:38:12;6.95;;;2.85;;
32876;SDS011;19226;51.600;8.034;2023-02-26T09:40:57;2.50;;;1.80;;
32876;SDS011;19226;51.600;8.034;2023-02-26T09:47:08;6.03;;;1.92;;
32876;SDS011;19226;51.600;8.034;2023-02-26T09:50:12;4.70;;;1.77;;
32876;SDS011;19226;51.600;8.034;2023-02-26T09:56:06;3.00;;;1.63;;
32876;SDS011;19226;51.600;8.034;2023-02-26T09:58:58;8.85;;;2.05;;
32876;SDS011;19226;51.600;8.034;2023-02-26T10:01:45;3.08;;;2.05;;
32876;SDS011;19226;51.600;8.034;2023-02-26T10:08:16;7.78;;;1.60;;
32876;SDS011;19226;51.600;8.034;2023-02-26T10:11:07;2.63;;;1.33;;
32876;SDS011;19226;51.600;8.034;2023-02-26T10:14:00;1.40;;;1.30;;
32876;SDS011;19226;51.600;8.034;2023-02-26T10:16:49;2.75;;;1.83;;
32876;SDS011;19226;51.600;8.034;2023-02-26T10:19:38;2.03;;;1.10;;
32876;SDS011;19226;51.600;8.034;2023-02-26T10:22:36;2.72;;;1.40;;
32876;SDS011;19226;51.600;8.034;2023-02-26T10:26:10;3.97;;;1.40;;
32876;SDS011;19226;51.600;8.034;2023-02-26T10:34:40;4.50;;;1.80;;
32876;SDS011;19226;51.600;8.034;2023-02-26T10:40:41;3.47;;;1.58;;
32876;SDS011;19226;51.600;8.034;2023-02-26T10:46:34;9.98;;;5.50;;
32876;SDS011;19226;51.600;8.034;2023-02-26T10:52:37;5.18;;;2.60;;
32876;SDS011;19226;51.600;8.034;2023-02-26T10:58:17;19.15;;;7.55;;
32876;SDS011;19226;51.600;8.034;2023-02-26T11:01:16;17.25;;;7.13;;
32876;SDS011;19226;51.600;8.034;2023-02-26T11:04:10;6.07;;;2.55;;
32876;SDS011;19226;51.600;8.034;2023-02-26T11:07:01;5.20;;;3.25;;
32876;SDS011;19226;51.600;8.034;2023-02-26T11:09:48;3.60;;;1.63;;
32876;SDS011;19226;51.600;8.034;2023-02-26T11:12:33;2.17;;;1.90;;
32876;SDS011;19226;51.600;8.034;2023-02-26T11:15:21;3.42;;;1.55;;
32876;SDS011;19226;51.600;8.034;2023-02-26T11:18:13;2.92;;;1.40;;
32876;SDS011;19226;51.600;8.034;2023-02-26T11:21:02;4.75;;;1.75;;
32876;SDS011;19226;51.600;8.034;2023-02-26T11:23:49;6.00;;;1.48;;
32876;SDS011;19226;51.600;8.034;2023-02-26T11:26:42;3.65;;;1.20;;
32876;SDS011;19226;51.600;8.034;2023-02-26T11:29:37;5.07;;;1.50;;
32876;SDS011;19226;51.600;8.034;2023-02-26T11:32:31;5.10;;;1.42;;
32876;SDS011;19226;51.600;8.034;2023-02-26T11:35:19;1.20;;;1.08;;
32876;SDS011;19226;51.600;8.034;2023-02-26T11:38:07;2.47;;;1.53;;
32876;SDS011;19226;51.600;8.034;2023-02-26T11:40:59;1.65;;;1.25;;
32876;SDS011;19226;51.600;8.034;2023-02-26T11:43:47;3.30;;;1.10;;
32876;SDS011;19226;51.600;8.034;2023-02-26T11:46:41;5.97;;;1.35;;
32876;SDS011;19226;51.600;8.034;2023-02-26T11:49:33;1.63;;;1.08;;
32876;SDS011;19226;51.600;8.034;2023-02-26T11:52:22;0.98;;;0.93;;
32876;SDS011;19226;51.600;8.034;2023-02-26T11:55:31;4.10;;;1.08;;
32876;SDS011;19226;51.600;8.034;2023-02-26T11:58:24;3.15;;;1.45;;
32876;SDS011;19226;51.600;8.034;2023-02-26T12:01:13;2.42;;;1.02;;
32876;SDS011;19226;51.600;8.034;2023-02-26T12:04:00;1.33;;;1.05;;
32876;SDS011;19226;51.600;8.034;2023-02-26T12:06:46;2.83;;;1.20;;
32876;SDS011;19226;51.600;8.034;2023-02-26T12:09:34;1.70;;;1.05;;
32876;SDS011;19226;51.600;8.034;2023-02-26T12:15:38;5.70;;;2.00;;
32876;SDS011;19226;51.600;8.034;2023-02-26T12:24:23;3.38;;;1.13;;
32876;SDS011;19226;51.600;8.034;2023-02-26T12:27:36;1.73;;;1.10;;
32876;SDS011;19226;51.600;8.034;2023-02-26T12:34:04;3.17;;;1.25;;
32876;SDS011;19226;51.600;8.034;2023-02-26T12:46:07;0.90;;;0.90;;
32876;SDS011;19226;51.600;8.034;2023-02-26T12:49:10;0.90;;;0.90;;
32876;SDS011;19226;51.600;8.034;2023-02-26T12:52:19;1.70;;;0.80;;
32876;SDS011;19226;51.600;8.034;2023-02-26T12:58:12;3.17;;;0.82;;
32876;SDS011;19226;51.600;8.034;2023-02-26T13:07:49;2.25;;;1.10;;
32876;SDS011;19226;51.600;8.034;2023-02-26T13:19:47;4.25;;;1.00;;
32876;SDS011;19226;51.600;8.034;2023-02-26T13:22:38;1.80;;;0.80;;
32876;SDS011;19226;51.600;8.034;2023-02-26T13:28:23;3.90;;;2.08;;
32876;SDS011;19226;51.600;8.034;2023-02-26T13:31:17;2.58;;;0.98;;
32876;SDS011;19226;51.600;8.034;2023-02-26T13:37:25;2.55;;;0.80;;
32876;SDS011;19226;51.600;8.034;2023-02-26T13:49:54;3.67;;;1.85;;
32876;SDS011;19226;51.600;8.034;2023-02-26T13:52:50;2.42;;;0.90;;
32876;SDS011;19226;51.600;8.034;2023-02-26T13:55:46;1.10;;;0.95;;
32876;SDS011;19226;51.600;8.034;2023-02-26T13:58:37;1.42;;;1.00;;
32876;SDS011;19226;51.600;8.034;2023-02-26T14:07:15;1.63;;;1.33;;
32876;SDS011;19226;51.600;8.034;2023-02-26T14:10:01;1.77;;;1.25;;
32876;SDS011;19226;51.600;8.034;2023-02-26T14:13:11;2.53;;;1.60;;
32876;SDS011;19226;51.600;8.034;2023-02-26T14:16:12;2.75;;;0.75;;
32876;SDS011;19226;51.600;8.034;2023-02-26T14:19:18;1.75;;;0.90;;
32876;SDS011;19226;51.600;8.034;2023-02-26T14:25:17;2.70;;;1.00;;
32876;SDS011;19226;51.600;8.034;2023-02-26T14:31:12;1.92;;;1.52;;
32876;SDS011;19226;51.600;8.034;2023-02-26T14:34:08;2.55;;;1.33;;
32876;SDS011;19226;51.600;8.034;2023-02-26T14:36:57;3.33;;;1.80;;
32876;SDS011;19226;51.600;8.034;2023-02-26T14:39:46;1.83;;;1.13;;
32876;SDS011;19226;51.600;8.034;2023-02-26T14:42:52;1.92;;;1.60;;
32876;SDS011;19226;51.600;8.034;2023-02-26T14:45:40;3.75;;;2.42;;
32876;SDS011;19226;51.600;8.034;2023-02-26T14:48:28;2.90;;;1.60;;
32876;SDS011;19226;51.600;8.034;2023-02-26T15:06:58;2.45;;;0.90;;
32876;SDS011;19226;51.600;8.034;2023-02-26T15:15:50;3.13;;;1.38;;
32876;SDS011;19226;51.600;8.034;2023-02-26T15:22:21;1.70;;;1.60;;
32876;SDS011;19226;51.600;8.034;2023-02-26T15:25:30;3.22;;;2.38;;
32876;SDS011;19226;51.600;8.034;2023-02-26T15:31:10;2.95;;;1.10;;
32876;SDS011;19226;51.600;8.034;2023-02-26T15:33:56;1.75;;;1.38;;
32876;SDS011;19226;51.600;8.034;2023-02-26T15:36:45;5.82;;;2.13;;
32876;SDS011;19226;51.600;8.034;2023-02-26T15:39:32;3.17;;;2.42;;
32876;SDS011;19226;51.600;8.034;2023-02-26T15:42:18;2.60;;;2.10;;
32876;SDS011;19226;51.600;8.034;2023-02-26T15:45:11;1.80;;;1.67;;
32876;SDS011;19226;51.600;8.034;2023-02-26T15:48:07;1.83;;;1.63;;
32876;SDS011;19226;51.600;8.034;2023-02-26T15:50:59;11.63;;;1.80;;
32876;SDS011;19226;51.600;8.034;2023-02-26T15:53:47;1.95;;;1.30;;
32876;SDS011;19226;51.600;8.034;2023-02-26T15:56:34;3.75;;;2.17;;
32876;SDS011;19226;51.600;8.034;2023-02-26T15:59:21;1.65;;;1.50;;
32876;SDS011;19226;51.600;8.034;2023-02-26T16:02:13;2.20;;;1.75;;
32876;SDS011;19226;51.600;8.034;2023-02-26T16:05:00;2.42;;;1.95;;
32876;SDS011;19226;51.600;8.034;2023-02-26T16:07:45;3.67;;;2.50;;
32876;SDS011;19226;51.600;8.034;2023-02-26T16:10:34;2.53;;;1.42;;
32876;SDS011;19226;51.600;8.034;2023-02-26T16:13:33;3.67;;;2.08;;
32876;SDS011;19226;51.600;8.034;2023-02-26T16:16:23;3.25;;;1.70;;
32876;SDS011;19226;51.600;8.034;2023-02-26T16:19:18;2.45;;;1.17;;
32876;SDS011;19226;51.600;8.034;2023-02-26T16:25:14;2.70;;;1.00;;
32876;SDS011;19226;51.600;8.034;2023-02-26T16:28:11;1.38;;;1.25;;
32876;SDS011;19226;51.600;8.034;2023-02-26T16:31:04;2.92;;;1.80;;
32876;SDS011;19226;51.600;8.034;2023-02-26T16:33:59;2.00;;;1.40;;
32876;SDS011;19226;51.600;8.034;2023-02-26T16:36:45;3.20;;;1.90;;
32876;SDS011;19226;51.600;8.034;2023-02-26T16:39:30;3.88;;;2.80;;
32876;SDS011;19226;51.600;8.034;2023-02-26T16:42:20;5.95;;;2.70;;
32876;SDS011;19226;51.600;8.034;2023-02-26T16:51:15;3.08;;;2.75;;
32876;SDS011;19226;51.600;8.034;2023-02-26T16:54:08;3.33;;;1.50;;
32876;SDS011;19226;51.600;8.034;2023-02-26T16:57:18;2.70;;;2.00;;
32876;SDS011;19226;51.600;8.034;2023-02-26T17:00:14;3.45;;;1.42;;
32876;SDS011;19226;51.600;8.034;2023-02-26T17:03:17;5.68;;;1.30;;
32876;SDS011;19226;51.600;8.034;2023-02-26T17:06:04;2.03;;;1.10;;
32876;SDS011;19226;51.600;8.034;2023-02-26T17:08:56;3.92;;;1.08;;
32876;SDS011;19226;51.600;8.034;2023-02-26T17:11:41;3.60;;;1.07;;
32876;SDS011;19226;51.600;8.034;2023-02-26T17:14:28;1.70;;;1.20;;
32876;SDS011;19226;51.600;8.034;2023-02-26T17:17:19;1.20;;;1.00;;
32876;SDS011;19226;51.600;8.034;2023-02-26T17:20:04;2.47;;;1.60;;
32876;SDS011;19226;51.600;8.034;2023-02-26T17:22:49;5.82;;;2.08;;
32876;SDS011;19226;51.600;8.034;2023-02-26T17:25:47;4.97;;;1.20;;
32876;SDS011;19226;51.600;8.034;2023-02-26T17:28:35;3.22;;;1.90;;
32876;SDS011;19226;51.600;8.034;2023-02-26T17:31:23;4.50;;;2.78;;
32876;SDS011;19226;51.600;8.034;2023-02-26T17:34:09;5.43;;;3.35;;
32876;SDS011;19226;51.600;8.034;2023-02-26T17:36:54;4.43;;;2.50;;
32876;SDS011;19226;51.600;8.034;2023-02-26T17:39:40;2.58;;;2.38;;
32876;SDS011;19226;51.600;8.034;2023-02-26T17:42:26;2.08;;;1.80;;
32876;SDS011;19226;51.600;8.034;2023-02-26T17:45:10;3.95;;;2.55;;
32876;SDS011;19226;51.600;8.034;2023-02-26T17:47:55;3.13;;;2.30;;
32876;SDS011;19226;51.600;8.034;2023-02-26T17:50:45;5.20;;;2.80;;
32876;SDS011;19226;51.600;8.034;2023-02-26T17:53:35;3.72;;;3.42;;
32876;SDS011;19226;51.600;8.034;2023-02-26T17:56:27;3.60;;;3.27;;
32876;SDS011;19226;51.600;8.034;2023-02-26T17:59:14;5.97;;;5.38;;
32876;SDS011;19226;51.600;8.034;2023-02-26T18:01:59;7.82;;;4.70;;
32876;SDS011;19226;51.600;8.034;2023-02-26T18:04:43;9.45;;;6.55;;
32876;SDS011;19226;51.600;8.034;2023-02-26T18:07:28;8.45;;;6.55;;
32876;SDS011;19226;51.600;8.034;2023-02-26T18:10:23;5.95;;;4.82;;
32876;SDS011;19226;51.600;8.034;2023-02-26T18:13:09;6.50;;;4.85;;
32876;SDS011;19226;51.600;8.034;2023-02-26T18:15:53;4.90;;;3.95;;
32876;SDS011;19226;51.600;8.034;2023-02-26T18:18:40;9.60;;;3.92;;
32876;SDS011;19226;51.600;8.034;2023-02-26T18:21:25;6.00;;;3.78;;
32876;SDS011;19226;51.600;8.034;2023-02-26T18:24:10;4.40;;;4.00;;
32876;SDS011;19226;51.600;8.034;2023-02-26T18:26:55;5.40;;;4.75;;
32876;SDS011;19226;51.600;8.034;2023-02-26T18:29:39;6.57;;;5.80;;
32876;SDS011;19226;51.600;8.034;2023-02-26T18:32:28;8.13;;;5.20;;
32876;SDS011;19226;51.600;8.034;2023-02-26T18:35:13;14.55;;;7.78;;
32876;SDS011;19226;51.600;8.034;2023-02-26T18:38:00;10.05;;;6.72;;
32876;SDS011;19226;51.600;8.034;2023-02-26T18:40:45;10.18;;;5.75;;
32876;SDS011;19226;51.600;8.034;2023-02-26T18:43:30;10.65;;;4.82;;
32876;SDS011;19226;51.600;8.034;2023-02-26T18:46:15;2.30;;;2.10;;
32876;SDS011;19226;51.600;8.034;2023-02-26T18:49:00;2.67;;;1.77;;
32876;SDS011;19226;51.600;8.034;2023-02-26T18:51:44;3.08;;;1.60;;
32876;SDS011;19226;51.600;8.034;2023-02-26T18:54:29;4.22;;;1.77;;
32876;SDS011;19226;51.600;8.034;2023-02-26T18:57:13;2.17;;;1.83;;
32876;SDS011;19226;51.600;8.034;2023-02-26T18:59:58;5.47;;;1.90;;
32876;SDS011;19226;51.600;8.034;2023-02-26T19:02:43;3.08;;;1.55;;
32876;SDS011;19226;51.600;8.034;2023-02-26T19:05:28;3.97;;;1.70;;
32876;SDS011;19226;51.600;8.034;2023-02-26T19:08:30;6.38;;;1.63;;
32876;SDS011;19226;51.600;8.034;2023-02-26T19:11:16;3.72;;;1.50;;
32876;SDS011;19226;51.600;8.034;2023-02-26T19:14:00;2.63;;;1.48;;
32876;SDS011;19226;51.600;8.034;2023-02-26T19:16:44;4.45;;;1.92;;
32876;SDS011;19226;51.600;8.034;2023-02-26T19:19:29;3.22;;;1.58;;
32876;SDS011;19226;51.600;8.034;2023-02-26T19:22:13;2.20;;;1.95;;
32876;SDS011;19226;51.600;8.034;2023-02-26T19:24:58;2.08;;;1.60;;
32876;SDS011;19226;51.600;8.034;2023-02-26T19:27:42;3.50;;;1.60;;
32876;SDS011;19226;51.600;8.034;2023-02-26T19:30:27;2.17;;;1.80;;
32876;SDS011;19226;51.600;8.034;2023-02-26T19:33:11;4.55;;;2.10;;
32876;SDS011;19226;51.600;8.034;2023-02-26T19:35:56;4.32;;;1.88;;
32876;SDS011;19226;51.600;8.034;2023-02-26T19:38:41;2.53;;;2.00;;
32876;SDS011;19226;51.600;8.034;2023-02-26T19:41:30;3.35;;;2.25;;
32876;SDS011;19226;51.600;8.034;2023-02-26T19:44:15;6.13;;;4.15;;
32876;SDS011;19226;51.600;8.034;2023-02-26T19:47:00;8.00;;;5.30;;
32876;SDS011;19226;51.600;8.034;2023-02-26T19:49:45;10.57;;;5.68;;
32876;SDS011;19226;51.600;8.034;2023-02-26T19:52:30;6.90;;;4.40;;
32876;SDS011;19226;51.600;8.034;2023-02-26T19:55:16;4.40;;;2.80;;
32876;SDS011;19226;51.600;8.034;2023-02-26T19:58:01;4.13;;;2.22;;
32876;SDS011;19226;51.600;8.034;2023-02-26T20:00:45;3.45;;;2.03;;